sensor_id;sensor_type;location;lat;lon;timestamp;pressure;altitude;pressure_sealevel;temperature;humidity
42289;BME280;30230;47.520;19.016;2022-12-07T00:00:49;98985.78;;;3.20;98.92
42289;BME280;30230;47.520;19.016;2022-12-07T00:02:49;98983.66;;;3.16;98.47
42289;BME280;30230;47.520;19.016;2022-12-07T00:04:50;98983.66;;;3.16;98.63
42289;BME280;30230;47.520;19.016;2022-12-07T00:06:51;98982.44;;;3.10;98.24
42289;BME280;30230;47.520;19.016;2022-12-07T00:08:52;98980.78;;;3.09;98.85
42289;BME280;30230;47.520;19.016;2022-12-07T00:10:53;98977.44;;;3.07;98.41
42289;BME280;30230;47.520;19.016;2022-12-07T00:12:53;98975.09;;;3.04;98.27
42289;BME280;30230;47.520;19.016;2022-12-07T00:14:54;98961.09;;;3.02;98.02
42289;BME280;30230;47.520;19.016;2022-12-07T00:16:54;98966.06;;;2.97;97.66
42289;BME280;30230;47.520;19.016;2022-12-07T00:18:55;98956.06;;;2.91;98.11
42289;BME280;30230;47.520;19.016;2022-12-07T00:21:11;98970.72;;;2.86;97.81
42289;BME280;30230;47.520;19.016;2022-12-07T00:23:11;98963.84;;;2.76;98.30
42289;BME280;30230;47.520;19.016;2022-12-07T00:25:12;98964.63;;;2.68;97.78
42289;BME280;30230;47.520;19.016;2022-12-07T00:27:12;98964.63;;;2.60;98.23
42289;BME280;30230;47.520;19.016;2022-12-07T00:29:17;98970.13;;;2.58;98.53
42289;BME280;30230;47.520;19.016;2022-12-07T00:31:20;98962.72;;;2.52;99.38
42289;BME280;30230;47.520;19.016;2022-12-07T00:33:21;98954.53;;;2.46;99.72
42289;BME280;30230;47.520;19.016;2022-12-07T00:35:21;98962.53;;;2.46;100.00
42289;BME280;30230;47.520;19.016;2022-12-07T00:37:21;98956.69;;;2.42;100.00
42289;BME280;30230;47.520;19.016;2022-12-07T00:39:22;98953.88;;;2.44;100.00
42289;BME280;30230;47.520;19.016;2022-12-07T00:41:24;98954.72;;;2.44;100.00
42289;BME280;30230;47.520;19.016;2022-12-07T00:43:26;98951.53;;;2.41;100.00
42289;BME280;30230;47.520;19.016;2022-12-07T00:45:26;98952.34;;;2.41;100.00
42289;BME280;30230;47.520;19.016;2022-12-07T00:47:27;98959.53;;;2.41;99.78
42289;BME280;30230;47.520;19.016;2022-12-07T00:49:27;98956.50;;;2.35;99.63
42289;BME280;30230;47.520;19.016;2022-12-07T00:51:27;98967.97;;;2.36;99.99
42289;BME280;30230;47.520;19.016;2022-12-07T00:53:28;98962.13;;;2.32;100.00
42289;BME280;30230;47.520;19.016;2022-12-07T00:55:33;98952.94;;;2.27;99.68
42289;BME280;30230;47.520;19.016;2022-12-07T00:57:33;98946.31;;;2.31;99.74
42289;BME280;30230;47.520;19.016;2022-12-07T00:59:34;98954.47;;;2.29;99.73
42289;BME280;30230;47.520;19.016;2022-12-07T01:01:35;98940.41;;;2.19;99.58
42289;BME280;30230;47.520;19.016;2022-12-07T01:03:36;98946.13;;;2.24;100.00
42289;BME280;30230;47.520;19.016;2022-12-07T01:05:37;98946.88;;;2.17;99.43
42289;BME280;30230;47.520;19.016;2022-12-07T01:07:38;98943.34;;;2.08;100.00
42289;BME280;30230;47.520;19.016;2022-12-07T01:09:38;98947.16;;;2.05;100.00
42289;BME280;30230;47.520;19.016;2022-12-07T01:11:39;98944.00;;;2.02;100.00
42289;BME280;30230;47.520;19.016;2022-12-07T01:13:39;98954.78;;;2.00;100.00
42289;BME280;30230;47.520;19.016;2022-12-07T01:15:41;98955.78;;;1.99;100.00
42289;BME280;30230;47.520;19.016;2022-12-07T01:17:41;98953.91;;;1.92;100.00
42289;BME280;30230;47.520;19.016;2022-12-07T01:19:41;98949.72;;;1.89;100.00
42289;BME280;30230;47.520;19.016;2022-12-07T01:21:42;98955.13;;;1.79;100.00
42289;BME280;30230;47.520;19.016;2022-12-07T01:23:43;98959.63;;;1.79;100.00
42289;BME280;30230;47.520;19.016;2022-12-07T01:25:43;98948.31;;;1.77;100.00
42289;BME280;30230;47.520;19.016;2022-12-07T01:27:45;98948.31;;;1.77;100.00
42289;BME280;30230;47.520;19.016;2022-12-07T01:29:46;98950.97;;;1.77;100.00
42289;BME280;30230;47.520;19.016;2022-12-07T01:31:48;98938.44;;;1.69;100.00
42289;BME280;30230;47.520;19.016;2022-12-07T01:33:52;98937.97;;;1.74;100.00
42289;BME280;30230;47.520;19.016;2022-12-07T01:35:53;98937.19;;;1.81;100.00
42289;BME280;30230;47.520;19.016;2022-12-07T01:37:53;98941.19;;;1.86;100.00
42289;BME280;30230;47.520;19.016;2022-12-07T01:39:54;98939.75;;;1.91;100.00
42289;BME280;30230;47.520;19.016;2022-12-07T01:41:54;98941.94;;;1.96;100.00
42289;BME280;30230;47.520;19.016;2022-12-07T01:46:10;98938.53;;;2.12;100.00
42289;BME280;30230;47.520;19.016;2022-12-07T01:48:14;98942.78;;;2.22;100.00
42289;BME280;30230;47.520;19.016;2022-12-07T01:50:16;98933.81;;;2.31;100.00
42289;BME280;30230;47.520;19.016;2022-12-07T01:52:21;98930.50;;;2.38;100.00
42289;BME280;30230;47.520;19.016;2022-12-07T01:54:23;98932.63;;;2.60;100.00
42289;BME280;30230;47.520;19.016;2022-12-07T01:56:26;98926.63;;;2.66;100.00
42289;BME280;30230;47.520;19.016;2022-12-07T01:58:28;98918.16;;;2.71;100.00
42289;BME280;30230;47.520;19.016;2022-12-07T02:00:28;98923.19;;;2.82;100.00
42289;BME280;30230;47.520;19.016;2022-12-07T02:02:41;98921.34;;;2.82;100.00
42289;BME280;30230;47.520;19.016;2022-12-07T02:04:43;98919.38;;;2.84;100.00
42289;BME280;30230;47.520;19.016;2022-12-07T02:06:44;98924.53;;;2.94;100.00
42289;BME280;30230;47.520;19.016;2022-12-07T02:08:46;98921.06;;;3.02;100.00
42289;BME280;30230;47.520;19.016;2022-12-07T02:10:46;98916.56;;;3.02;100.00
42289;BME280;30230;47.520;19.016;2022-12-07T02:12:50;98923.09;;;3.16;100.00
42289;BME280;30230;47.520;19.016;2022-12-07T02:14:53;98919.75;;;3.22;100.00
42289;BME280;30230;47.520;19.016;2022-12-07T02:17:14;98914.28;;;3.32;100.00
42289;BME280;30230;47.520;19.016;2022-12-07T02:21:46;98921.09;;;3.34;100.00
42289;BME280;30230;47.520;19.016;2022-12-07T02:23:52;98918.59;;;3.33;100.00
42289;BME280;30230;47.520;19.016;2022-12-07T02:28:31;98913.09;;;3.34;100.00
42289;BME280;30230;47.520;19.016;2022-12-07T02:30:36;98911.25;;;3.35;100.00
42289;BME280;30230;47.520;19.016;2022-12-07T02:37:03;98914.09;;;3.33;100.00
42289;BME280;30230;47.520;19.016;2022-12-07T02:39:25;98912.41;;;3.40;100.00
42289;BME280;30230;47.520;19.016;2022-12-07T02:41:40;98916.09;;;3.39;100.00
42289;BME280;30230;47.520;19.016;2022-12-07T02:43:47;98919.25;;;3.35;100.00
42289;BME280;30230;47.520;19.016;2022-12-07T02:45:50;98916.28;;;3.38;100.00
42289;BME280;30230;47.520;19.016;2022-12-07T02:47:53;98919.13;;;3.36;100.00
42289;BME280;30230;47.520;19.016;2022-12-07T02:49:56;98910.09;;;3.37;100.00
42289;BME280;30230;47.520;19.016;2022-12-07T02:51:56;98917.63;;;3.42;100.00
42289;BME280;30230;47.520;19.016;2022-12-07T02:53:57;98914.44;;;3.38;100.00
42289;BME280;30230;47.520;19.016;2022-12-07T02:55:59;98908.09;;;3.39;100.00
42289;BME280;30230;47.520;19.016;2022-12-07T02:58:18;98902.75;;;3.39;100.00
42289;BME280;30230;47.520;19.016;2022-12-07T03:00:23;98913.41;;;3.39;100.00
42289;BME280;30230;47.520;19.016;2022-12-07T03:10:01;98899.06;;;3.40;100.00
42289;BME280;30230;47.520;19.016;2022-12-07T03:12:34;98895.25;;;3.43;100.00
42289;BME280;30230;47.520;19.016;2022-12-07T03:14:50;98891.56;;;3.44;100.00
42289;BME280;30230;47.520;19.016;2022-12-07T03:17:05;98893.59;;;3.42;100.00
42289;BME280;30230;47.520;19.016;2022-12-07T03:19:11;98893.72;;;3.40;100.00
42289;BME280;30230;47.520;19.016;2022-12-07T03:21:17;98894.56;;;3.41;100.00
42289;BME280;30230;47.520;19.016;2022-12-07T03:23:20;98888.22;;;3.50;100.00
42289;BME280;30230;47.520;19.016;2022-12-07T03:25:24;98889.72;;;3.45;100.00
42289;BME280;30230;47.520;19.016;2022-12-07T03:27:34;98885.72;;;3.40;100.00
42289;BME280;30230;47.520;19.016;2022-12-07T03:29:38;98893.72;;;3.40;100.00
42289;BME280;30230;47.520;19.016;2022-12-07T03:31:46;98894.09;;;3.37;100.00
42289;BME280;30230;47.520;19.016;2022-12-07T03:36:21;98898.91;;;3.34;100.00
42289;BME280;30230;47.520;19.016;2022-12-07T03:38:30;98900.44;;;3.36;100.00
42289;BME280;30230;47.520;19.016;2022-12-07T03:40:48;98908.44;;;3.36;100.00
42289;BME280;30230;47.520;19.016;2022-12-07T03:42:52;98909.91;;;3.39;100.00
42289;BME280;30230;47.520;19.016;2022-12-07T03:44:54;98909.09;;;3.38;100.00
42289;BME280;30230;47.520;19.016;2022-12-07T03:47:13;98915.59;;;3.44;100.00
42289;BME280;30230;47.520;19.016;2022-12-07T03:49:23;98912.75;;;3.46;100.00
42289;BME280;30230;47.520;19.016;2022-12-07T03:51:30;98912.44;;;3.49;100.00
42289;BME280;30230;47.520;19.016;2022-12-07T03:53:43;98916.59;;;3.59;100.00
42289;BME280;30230;47.520;19.016;2022-12-07T03:55:46;98915.75;;;3.51;100.00
42289;BME280;30230;47.520;19.016;2022-12-07T03:57:52;98909.75;;;3.49;100.00
42289;BME280;30230;47.520;19.016;2022-12-07T03:59:55;98911.25;;;3.51;100.00
42289;BME280;30230;47.520;19.016;2022-12-07T04:02:02;98915.09;;;3.49;100.00
42289;BME280;30230;47.520;19.016;2022-12-07T04:04:03;98917.78;;;3.49;100.00
42289;BME280;30230;47.520;19.016;2022-12-07T04:06:04;98915.09;;;3.49;100.00
42289;BME280;30230;47.520;19.016;2022-12-07T04:08:04;98915.09;;;3.49;100.00
42289;BME280;30230;47.520;19.016;2022-12-07T04:10:05;98912.28;;;3.42;100.00
42289;BME280;30230;47.520;19.016;2022-12-07T04:12:06;98915.25;;;3.55;100.00
42289;BME280;30230;47.520;19.016;2022-12-07T04:14:06;98902.41;;;3.34;100.00
42289;BME280;30230;47.520;19.016;2022-12-07T04:16:18;98918.09;;;3.46;100.00
42289;BME280;30230;47.520;19.016;2022-12-07T04:18:19;98915.91;;;3.41;100.00
42289;BME280;30230;47.520;19.016;2022-12-07T04:20:19;98915.09;;;3.32;100.00
42289;BME280;30230;47.520;19.016;2022-12-07T04:22:20;98923.94;;;3.41;100.00
42289;BME280;30230;47.520;19.016;2022-12-07T04:24:20;98924.44;;;3.36;100.00
42289;BME280;30230;47.520;19.016;2022-12-07T04:26:21;98925.59;;;3.34;100.00
42289;BME280;30230;47.520;19.016;2022-12-07T04:28:21;98919.75;;;3.30;100.00
42289;BME280;30230;47.520;19.016;2022-12-07T04:30:21;98922.28;;;3.32;100.00
42289;BME280;30230;47.520;19.016;2022-12-07T04:32:23;98923.09;;;3.32;100.00
42289;BME280;30230;47.520;19.016;2022-12-07T04:34:23;98922.09;;;3.33;100.00
42289;BME280;30230;47.520;19.016;2022-12-07T04:36:24;98925.09;;;3.38;100.00
42289;BME280;30230;47.520;19.016;2022-12-07T04:38:24;98909.09;;;3.22;100.00
42289;BME280;30230;47.520;19.016;2022-12-07T04:40:25;98917.09;;;3.22;100.00
42289;BME280;30230;47.520;19.016;2022-12-07T04:42:25;98922.59;;;3.21;100.00
42289;BME280;30230;47.520;19.016;2022-12-07T04:44:26;98921.09;;;3.18;100.00
42289;BME280;30230;47.520;19.016;2022-12-07T04:46:28;98922.44;;;3.22;100.00
42289;BME280;30230;47.520;19.016;2022-12-07T04:48:30;98932.63;;;3.27;100.00
42289;BME280;30230;47.520;19.016;2022-12-07T04:50:30;98929.78;;;3.28;100.00
42289;BME280;30230;47.520;19.016;2022-12-07T04:52:30;98927.25;;;3.19;100.00
42289;BME280;30230;47.520;19.016;2022-12-07T04:54:31;98924.94;;;3.16;100.00
42289;BME280;30230;47.520;19.016;2022-12-07T04:56:32;98922.09;;;3.17;100.00
42289;BME280;30230;47.520;19.016;2022-12-07T04:58:32;98924.09;;;3.23;100.00
42289;BME280;30230;47.520;19.016;2022-12-07T05:00:33;98928.94;;;3.11;100.00
42289;BME280;30230;47.520;19.016;2022-12-07T05:02:33;98918.75;;;3.07;100.00
42289;BME280;30230;47.520;19.016;2022-12-07T05:04:33;98918.22;;;3.03;100.00
42289;BME280;30230;47.520;19.016;2022-12-07T05:06:34;98909.91;;;3.06;100.00
42289;BME280;30230;47.520;19.016;2022-12-07T05:08:35;98912.72;;;3.05;100.00
42289;BME280;30230;47.520;19.016;2022-12-07T05:10:35;98906.88;;;3.09;100.00
42289;BME280;30230;47.520;19.016;2022-12-07T05:12:35;98883.03;;;2.92;100.00
42289;BME280;30230;47.520;19.016;2022-12-07T05:14:36;98905.22;;;3.08;100.00
42289;BME280;30230;47.520;19.016;2022-12-07T05:16:37;98905.72;;;3.04;100.00
42289;BME280;30230;47.520;19.016;2022-12-07T05:18:38;98909.91;;;3.06;100.00
42289;BME280;30230;47.520;19.016;2022-12-07T05:20:39;98896.38;;;3.00;100.00
42289;BME280;30230;47.520;19.016;2022-12-07T05:22:40;98909.72;;;3.08;100.00
42289;BME280;30230;47.520;19.016;2022-12-07T05:24:40;98903.03;;;3.04;100.00
42289;BME280;30230;47.520;19.016;2022-12-07T05:26:41;98909.38;;;3.03;100.00
42289;BME280;30230;47.520;19.016;2022-12-07T05:28:41;98903.72;;;3.06;100.00
42289;BME280;30230;47.520;19.016;2022-12-07T05:30:42;98909.22;;;3.04;100.00
42289;BME280;30230;47.520;19.016;2022-12-07T05:32:42;98904.06;;;3.03;100.00
42289;BME280;30230;47.520;19.016;2022-12-07T05:34:43;98903.03;;;3.04;100.00
42289;BME280;30230;47.520;19.016;2022-12-07T05:36:43;98908.38;;;3.04;100.00
42289;BME280;30230;47.520;19.016;2022-12-07T05:38:43;98884.84;;;2.99;100.00
42289;BME280;30230;47.520;19.016;2022-12-07T05:40:44;98896.03;;;3.03;100.00
42289;BME280;30230;47.520;19.016;2022-12-07T05:42:44;98901.91;;;3.06;100.00
42289;BME280;30230;47.520;19.016;2022-12-07T05:44:45;98902.56;;;3.08;100.00
42289;BME280;30230;47.520;19.016;2022-12-07T05:46:46;98902.06;;;3.13;100.00
42289;BME280;30230;47.520;19.016;2022-12-07T05:48:46;98907.72;;;3.10;100.00
42289;BME280;30230;47.520;19.016;2022-12-07T05:50:48;98899.06;;;3.08;100.00
42289;BME280;30230;47.520;19.016;2022-12-07T05:52:48;98904.06;;;3.11;100.00
42289;BME280;30230;47.520;19.016;2022-12-07T05:54:49;98888.53;;;2.98;100.00
42289;BME280;30230;47.520;19.016;2022-12-07T05:56:49;98910.56;;;3.08;100.00
42289;BME280;30230;47.520;19.016;2022-12-07T05:58:49;98908.25;;;3.05;100.00
42289;BME280;30230;47.520;19.016;2022-12-07T06:01:08;98906.41;;;3.06;100.00
42289;BME280;30230;47.520;19.016;2022-12-07T06:03:09;98902.22;;;3.03;100.00
42289;BME280;30230;47.520;19.016;2022-12-07T06:05:09;98906.88;;;3.09;100.00
42289;BME280;30230;47.520;19.016;2022-12-07T06:07:12;98901.72;;;3.08;100.00
42289;BME280;30230;47.520;19.016;2022-12-07T06:09:14;98915.09;;;3.16;100.00
42289;BME280;30230;47.520;19.016;2022-12-07T06:11:14;98909.41;;;3.11;100.00
42289;BME280;30230;47.520;19.016;2022-12-07T06:13:33;98918.41;;;3.10;100.00
42289;BME280;30230;47.520;19.016;2022-12-07T06:15:37;98906.88;;;3.09;100.00
42289;BME280;30230;47.520;19.016;2022-12-07T06:17:37;98918.41;;;3.10;100.00
42289;BME280;30230;47.520;19.016;2022-12-07T06:19:38;98914.91;;;3.18;100.00
42289;BME280;30230;47.520;19.016;2022-12-07T06:21:39;98896.91;;;3.20;100.00
42289;BME280;30230;47.520;19.016;2022-12-07T06:23:39;98902.09;;;3.21;100.00
42289;BME280;30230;47.520;19.016;2022-12-07T06:25:45;98917.59;;;3.26;100.00
42289;BME280;30230;47.520;19.016;2022-12-07T06:27:46;98900.75;;;3.17;100.00
42289;BME280;30230;47.520;19.016;2022-12-07T06:29:46;98915.41;;;3.29;100.00
42289;BME280;30230;47.520;19.016;2022-12-07T06:31:46;98914.59;;;3.37;100.00
42289;BME280;30230;47.520;19.016;2022-12-07T06:33:47;98912.59;;;3.39;100.00
42289;BME280;30230;47.520;19.016;2022-12-07T06:35:47;98910.59;;;3.33;100.00
42289;BME280;30230;47.520;19.016;2022-12-07T06:37:48;98909.41;;;3.19;100.00
42289;BME280;30230;47.520;19.016;2022-12-07T06:39:48;98878.38;;;3.02;100.00
42289;BME280;30230;47.520;19.016;2022-12-07T06:41:49;98922.59;;;3.21;100.00
42289;BME280;30230;47.520;19.016;2022-12-07T06:43:50;98921.94;;;3.35;100.00
42289;BME280;30230;47.520;19.016;2022-12-07T06:45:50;98894.06;;;3.13;100.00
42289;BME280;30230;47.520;19.016;2022-12-07T06:47:51;98918.44;;;3.26;100.00
42289;BME280;30230;47.520;19.016;2022-12-07T06:49:51;98920.44;;;3.32;100.00
42289;BME280;30230;47.520;19.016;2022-12-07T06:51:52;98921.44;;;3.39;100.00
42289;BME280;30230;47.520;19.016;2022-12-07T06:53:52;98924.78;;;3.33;100.00
42289;BME280;30230;47.520;19.016;2022-12-07T06:55:53;98920.44;;;3.32;100.00
42289;BME280;30230;47.520;19.016;2022-12-07T06:57:53;98928.78;;;3.37;100.00
42289;BME280;30230;47.520;19.016;2022-12-07T06:59:53;98926.78;;;3.31;100.00
42289;BME280;30230;47.520;19.016;2022-12-07T07:01:54;98910.44;;;3.26;100.00
42289;BME280;30230;47.520;19.016;2022-12-07T07:03:54;98912.06;;;3.19;100.00
42289;BME280;30230;47.520;19.016;2022-12-07T07:05:55;98922.41;;;3.30;100.00
42289;BME280;30230;47.520;19.016;2022-12-07T07:07:55;98921.28;;;3.33;100.00
42289;BME280;30230;47.520;19.016;2022-12-07T07:09:55;98925.94;;;3.31;100.00
42289;BME280;30230;47.520;19.016;2022-12-07T07:11:56;98921.25;;;3.90;100.00
42289;BME280;30230;47.520;19.016;2022-12-07T07:13:56;98920.84;;;4.26;100.00
42289;BME280;30230;47.520;19.016;2022-12-07T07:15:59;98925.41;;;4.09;100.00
42289;BME280;30230;47.520;19.016;2022-12-07T07:18:00;98921.78;;;4.41;100.00
42289;BME280;30230;47.520;19.016;2022-12-07T07:20:00;98929.38;;;4.21;100.00
42289;BME280;30230;47.520;19.016;2022-12-07T07:22:01;98931.38;;;4.11;100.00
42289;BME280;30230;47.520;19.016;2022-12-07T07:24:01;98917.75;;;3.89;100.00
42289;BME280;30230;47.520;19.016;2022-12-07T07:26:02;98930.41;;;3.87;100.00
42289;BME280;30230;47.520;19.016;2022-12-07T07:28:03;98931.59;;;3.77;100.00
42289;BME280;30230;47.520;19.016;2022-12-07T07:30:04;98939.13;;;3.81;100.00
42289;BME280;30230;47.520;19.016;2022-12-07T07:32:05;98936.13;;;3.68;100.00
42289;BME280;30230;47.520;19.016;2022-12-07T07:34:05;98931.13;;;3.65;100.00
42289;BME280;30230;47.520;19.016;2022-12-07T07:36:06;98931.47;;;3.62;100.00
42289;BME280;30230;47.520;19.016;2022-12-07T07:38:06;98927.78;;;3.63;100.00
42289;BME280;30230;47.520;19.016;2022-12-07T07:40:08;98931.97;;;3.57;100.00
42289;BME280;30230;47.520;19.016;2022-12-07T07:42:09;98923.28;;;3.55;100.00
42289;BME280;30230;47.520;19.016;2022-12-07T07:44:09;98926.97;;;3.62;100.00
42289;BME280;30230;47.520;19.016;2022-12-07T07:46:10;98924.44;;;3.61;100.00
42289;BME280;30230;47.520;19.016;2022-12-07T07:48:10;98918.44;;;3.67;100.00
42289;BME280;30230;47.520;19.016;2022-12-07T07:50:11;98926.47;;;3.67;100.00
42289;BME280;30230;47.520;19.016;2022-12-07T07:52:11;98930.09;;;3.66;100.00
42289;BME280;30230;47.520;19.016;2022-12-07T07:54:12;98938.13;;;3.66;100.00
42289;BME280;30230;47.520;19.016;2022-12-07T07:56:12;98935.44;;;3.66;100.00
42289;BME280;30230;47.520;19.016;2022-12-07T07:58:12;98937.28;;;3.74;100.00
42289;BME280;30230;47.520;19.016;2022-12-07T08:00:14;98938.97;;;3.75;100.00
42289;BME280;30230;47.520;19.016;2022-12-07T08:02:17;98939.78;;;3.75;100.00
42289;BME280;30230;47.520;19.016;2022-12-07T08:04:18;98935.78;;;3.79;100.00
42289;BME280;30230;47.520;19.016;2022-12-07T08:06:18;98939.78;;;3.83;100.00
42289;BME280;30230;47.520;19.016;2022-12-07T08:08:18;98936.63;;;3.80;100.00
42289;BME280;30230;47.520;19.016;2022-12-07T08:10:19;98937.44;;;3.80;100.00
42289;BME280;30230;47.520;19.016;2022-12-07T08:12:19;98945.13;;;3.83;100.00
42289;BME280;30230;47.520;19.016;2022-12-07T08:14:20;98948.78;;;3.82;100.00
42289;BME280;30230;47.520;19.016;2022-12-07T08:16:20;98946.13;;;3.82;100.00
42289;BME280;30230;47.520;19.016;2022-12-07T08:18:21;98949.47;;;3.84;100.00
42289;BME280;30230;47.520;19.016;2022-12-07T08:20:21;98950.81;;;3.88;100.00
42289;BME280;30230;47.520;19.016;2022-12-07T08:22:22;98951.13;;;3.94;100.00
42289;BME280;30230;47.520;19.016;2022-12-07T08:24:23;98955.81;;;3.91;100.00
42289;BME280;30230;47.520;19.016;2022-12-07T08:26:23;98953.81;;;3.94;100.00
42289;BME280;30230;47.520;19.016;2022-12-07T08:28:23;98946.13;;;3.99;100.00
42289;BME280;30230;47.520;19.016;2022-12-07T08:30:24;98954.47;;;4.04;100.00
42289;BME280;30230;47.520;19.016;2022-12-07T08:32:24;98958.63;;;4.14;100.00
42289;BME280;30230;47.520;19.016;2022-12-07T08:34:25;98954.09;;;4.15;100.00
42289;BME280;30230;47.520;19.016;2022-12-07T08:36:26;98954.75;;;4.17;100.00
42289;BME280;30230;47.520;19.016;2022-12-07T08:38:26;98948.06;;;4.21;100.00
42289;BME280;30230;47.520;19.016;2022-12-07T08:40:27;98944.44;;;4.14;100.00
42289;BME280;30230;47.520;19.016;2022-12-07T08:42:27;98944.56;;;4.12;100.00
42289;BME280;30230;47.520;19.016;2022-12-07T08:44:29;98959.22;;;4.41;100.00
42289;BME280;30230;47.520;19.016;2022-12-07T08:46:44;98952.41;;;4.22;100.00
42289;BME280;30230;47.520;19.016;2022-12-07T08:49:11;98966.59;;;4.31;100.00
42289;BME280;30230;47.520;19.016;2022-12-07T08:51:12;98960.09;;;4.17;100.00
42289;BME280;30230;47.520;19.016;2022-12-07T08:53:13;98962.09;;;4.31;100.00
42289;BME280;30230;47.520;19.016;2022-12-07T08:55:14;98958.41;;;4.32;100.00
42289;BME280;30230;47.520;19.016;2022-12-07T08:57:14;98952.78;;;4.19;100.00
42289;BME280;30230;47.520;19.016;2022-12-07T08:59:16;98960.06;;;4.33;100.00
42289;BME280;30230;47.520;19.016;2022-12-07T09:01:17;98964.44;;;4.34;100.00
42289;BME280;30230;47.520;19.016;2022-12-07T09:03:18;98959.91;;;4.35;100.00
42289;BME280;30230;47.520;19.016;2022-12-07T09:05:18;98968.72;;;4.43;100.00
42289;BME280;30230;47.520;19.016;2022-12-07T09:07:19;98962.22;;;4.38;100.00
42289;BME280;30230;47.520;19.016;2022-12-07T09:09:19;98964.44;;;4.34;100.00
42289;BME280;30230;47.520;19.016;2022-12-07T09:11:20;98960.38;;;4.47;100.00
42289;BME280;30230;47.520;19.016;2022-12-07T09:13:20;98963.88;;;4.39;100.00
42289;BME280;30230;47.520;19.016;2022-12-07T09:15:21;98948.41;;;4.26;100.00
42289;BME280;30230;47.520;19.016;2022-12-07T09:17:21;98959.09;;;4.34;100.00
42289;BME280;30230;47.520;19.016;2022-12-07T09:19:22;98951.06;;;4.34;100.00
42289;BME280;30230;47.520;19.016;2022-12-07T09:21:22;98943.34;;;4.39;100.00
42289;BME280;30230;47.520;19.016;2022-12-07T09:23:22;98926.94;;;4.42;100.00
42289;BME280;30230;47.520;19.016;2022-12-07T09:25:23;98909.78;;;4.29;100.00
42289;BME280;30230;47.520;19.016;2022-12-07T09:27:24;98937.66;;;4.42;99.35
42289;BME280;30230;47.520;19.016;2022-12-07T09:29:24;98937.31;;;4.46;99.78
42289;BME280;30230;47.520;19.016;2022-12-07T09:31:25;98941.00;;;4.44;97.03
42289;BME280;30230;47.520;19.016;2022-12-07T09:33:27;98941.19;;;4.35;98.67
42289;BME280;30230;47.520;19.016;2022-12-07T09:35:27;98948.53;;;4.33;99.63
42289;BME280;30230;47.520;19.016;2022-12-07T09:37:28;98928.69;;;4.27;99.86
42289;BME280;30230;47.520;19.016;2022-12-07T09:39:28;98934.03;;;4.27;100.00
42289;BME280;30230;47.520;19.016;2022-12-07T09:41:29;98925.50;;;4.32;100.00
42289;BME280;30230;47.520;19.016;2022-12-07T09:43:31;98925.81;;;4.29;100.00
42289;BME280;30230;47.520;19.016;2022-12-07T09:45:36;98929.31;;;4.37;100.00
42289;BME280;30230;47.520;19.016;2022-12-07T09:47:36;98926.31;;;4.40;99.97
42289;BME280;30230;47.520;19.016;2022-12-07T09:49:36;98929.59;;;4.51;100.00
42289;BME280;30230;47.520;19.016;2022-12-07T09:51:37;98920.06;;;4.48;99.38
42289;BME280;30230;47.520;19.016;2022-12-07T09:53:38;98915.56;;;4.49;100.00
42289;BME280;30230;47.520;19.016;2022-12-07T09:55:40;98923.19;;;4.60;100.00
42289;BME280;30230;47.520;19.016;2022-12-07T09:57:42;98917.50;;;4.63;99.89
42289;BME280;30230;47.520;19.016;2022-12-07T09:59:43;98919.16;;;4.64;99.73
42289;BME280;30230;47.520;19.016;2022-12-07T10:01:46;98912.81;;;4.65;99.25
42289;BME280;30230;47.520;19.016;2022-12-07T10:03:52;98919.78;;;4.74;98.81
42289;BME280;30230;47.520;19.016;2022-12-07T10:05:54;98909.47;;;4.71;98.25
42289;BME280;30230;47.520;19.016;2022-12-07T10:07:55;98914.44;;;4.74;97.93
42289;BME280;30230;47.520;19.016;2022-12-07T10:09:56;98922.25;;;4.84;97.25
42289;BME280;30230;47.520;19.016;2022-12-07T10:12:05;98920.53;;;4.91;96.09
42289;BME280;30230;47.520;19.016;2022-12-07T10:14:13;98913.66;;;4.96;94.89
42289;BME280;30230;47.520;19.016;2022-12-07T10:20:31;98907.22;;;5.06;93.64
42289;BME280;30230;47.520;19.016;2022-12-07T10:22:31;98895.41;;;5.00;94.60
42289;BME280;30230;47.520;19.016;2022-12-07T10:24:31;98894.38;;;5.01;93.62
42289;BME280;30230;47.520;19.016;2022-12-07T10:26:35;98923.56;;;5.19;92.53
42289;BME280;30230;47.520;19.016;2022-12-07T10:28:36;98914.09;;;5.31;92.23
42289;BME280;30230;47.520;19.016;2022-12-07T10:30:56;98908.59;;;5.33;90.33
42289;BME280;30230;47.520;19.016;2022-12-07T10:32:59;98907.72;;;5.32;89.10
42289;BME280;30230;47.520;19.016;2022-12-07T10:35:19;98913.22;;;5.39;87.95
42289;BME280;30230;47.520;19.016;2022-12-07T10:37:20;98904.88;;;5.34;88.47
42289;BME280;30230;47.520;19.016;2022-12-07T10:39:23;98887.38;;;5.23;90.39
42289;BME280;30230;47.520;19.016;2022-12-07T10:41:28;98902.84;;;5.36;90.67
42289;BME280;30230;47.520;19.016;2022-12-07T10:43:29;98901.00;;;5.36;91.27
42289;BME280;30230;47.520;19.016;2022-12-07T10:45:29;98901.97;;;5.43;89.73
42289;BME280;30230;47.520;19.016;2022-12-07T10:51:55;98904.84;;;5.57;89.94
42289;BME280;30230;47.520;19.016;2022-12-07T10:54:22;98910.22;;;5.57;87.79
42289;BME280;30230;47.520;19.016;2022-12-07T11:04:06;98898.84;;;5.55;87.68
42289;BME280;30230;47.520;19.016;2022-12-07T11:08:20;98887.19;;;5.47;85.82
42289;BME280;30230;47.520;19.016;2022-12-07T11:10:50;98882.84;;;5.46;85.76
42289;BME280;30230;47.520;19.016;2022-12-07T11:15:09;98883.41;;;5.57;86.21
42289;BME280;30230;47.520;19.016;2022-12-07T11:17:18;98891.75;;;5.62;85.77
42289;BME280;30230;47.520;19.016;2022-12-07T11:24:09;98883.63;;;5.55;86.08
42289;BME280;30230;47.520;19.016;2022-12-07T11:33:29;98882.69;;;5.63;83.71
42289;BME280;30230;47.520;19.016;2022-12-07T11:37:44;98871.72;;;5.72;84.79
42289;BME280;30230;47.520;19.016;2022-12-07T11:39:52;98886.97;;;5.72;83.10